createdAt,value
2023-05-21T00:02:06.339Z,100598.81
2023-05-21T00:04:54.936Z,100599.28
2023-05-21T00:07:46.034Z,100599.66
2023-05-21T00:10:34.721Z,100592.84
2023-05-21T00:13:23.392Z,100592.69
2023-05-21T00:16:13.478Z,100585.09
2023-05-21T00:19:02.304Z,100580.34
2023-05-21T00:21:51.032Z,100570.91
2023-05-21T00:24:39.675Z,100576.84
2023-05-21T00:27:28.306Z,100577.69
2023-05-21T00:30:17.294Z,100580.34
2023-05-21T00:33:07.611Z,100585.47
2023-05-21T00:35:56.809Z,100572.97
2023-05-21T00:38:46.186Z,100570.09
2023-05-21T00:41:35.400Z,100569.66
2023-05-21T00:44:25.383Z,100561.66
2023-05-21T00:47:18.243Z,100554.66
2023-05-21T00:50:10.235Z,100554.25
2023-05-21T00:52:59.736Z,100552.63
2023-05-21T00:55:49.049Z,100556.94
2023-05-21T00:58:38.662Z,100553.66
2023-05-21T01:01:27.695Z,100553.66
2023-05-21T01:04:16.600Z,100546.66
2023-05-21T01:07:09.720Z,100554.25
2023-05-21T01:09:58.461Z,100547.91
2023-05-21T01:12:49.150Z,100548.94
2023-05-21T01:15:39.013Z,100547.91
2023-05-21T01:18:28.312Z,100548.31
2023-05-21T01:21:17.592Z,100540.03
2023-05-21T01:24:08.244Z,100539.66
2023-05-21T01:26:58.664Z,100535.13
2023-05-21T01:29:47.334Z,100538.00
2023-05-21T01:32:44.152Z,100536.34
2023-05-21T01:35:38.226Z,100529.34
2023-05-21T01:38:32.696Z,100526.06
2023-05-21T01:41:23.541Z,100531.78
2023-05-21T01:44:13.535Z,100519.06
2023-05-21T01:47:03.542Z,100522.38
2023-05-21T01:49:53.465Z,100520.31
2023-05-21T01:52:50.964Z,100514.13
2023-05-21T01:55:42.091Z,100514.75
2023-05-21T01:58:32.341Z,100512.53
2023-05-21T02:01:21.006Z,100516.66
2023-05-21T02:04:09.812Z,100508.19
2023-05-21T02:06:58.787Z,100507.19
2023-05-21T02:09:47.476Z,100510.03
2023-05-21T02:12:36.156Z,100504.06
2023-05-21T02:15:26.733Z,100511.63
2023-05-21T02:18:16.825Z,100512.88
2023-05-21T02:21:05.931Z,100510.44
2023-05-21T02:23:54.589Z,100503.03
2023-05-21T02:26:43.417Z,100497.66
2023-05-21T02:29:32.347Z,100505.50
2023-05-21T02:32:23.727Z,100503.44
2023-05-21T02:35:13.959Z,100495.25
2023-05-21T02:38:04.931Z,100492.94
2023-05-21T02:40:53.821Z,100497.66
2023-05-21T02:43:42.556Z,100501.78
2023-05-21T02:46:31.341Z,100498.09
2023-05-21T02:49:21.644Z,100498.84
2023-05-21T02:52:10.335Z,100504.25
2023-05-21T02:54:58.969Z,100505.09
2023-05-21T02:57:47.598Z,100493.16
2023-05-21T03:00:36.273Z,100489.47
2023-05-21T03:03:25.238Z,100491.13
2023-05-21T03:06:16.390Z,100496.69
2023-05-21T03:09:05.938Z,100498.28
2023-05-21T03:11:54.636Z,100492.31
2023-05-21T03:14:44.159Z,100497.00
2023-05-21T03:17:32.805Z,100493.72
2023-05-21T03:20:21.474Z,100493.50
2023-05-21T03:23:15.698Z,100489.66
2023-05-21T03:26:05.371Z,100489.41
2023-05-21T03:28:53.996Z,100488.56
2023-05-21T03:31:42.696Z,100494.91
2023-05-21T03:34:31.422Z,100501.09
2023-05-21T03:37:20.053Z,100489.19
2023-05-21T03:40:11.564Z,100494.81
2023-05-21T03:43:00.222Z,100494.19
2023-05-21T03:45:48.924Z,100490.28
2023-05-21T03:48:40.215Z,100495.16
2023-05-21T03:51:30.295Z,100498.50
2023-05-21T03:54:18.951Z,100496.84
2023-05-21T03:57:09.174Z,100497.19
2023-05-21T03:59:59.010Z,100502.53
2023-05-21T04:02:48.093Z,100499.25
2023-05-21T04:05:36.975Z,100497.19
2023-05-21T04:08:28.362Z,100498.84
2023-05-21T04:11:16.995Z,100497.41
2023-05-21T04:14:07.036Z,100499.25
2023-05-21T04:16:56.742Z,100501.91
2023-05-21T04:19:45.387Z,100495.53
2023-05-21T04:22:35.353Z,100491.84
2023-05-21T04:25:25.327Z,100487.34
2023-05-21T04:28:14.009Z,100496.56
2023-05-21T04:31:05.785Z,100495.16
2023-05-21T04:33:55.470Z,100502.81
2023-05-21T04:36:44.083Z,100502.19
2023-05-21T04:39:32.771Z,100503.00
2023-05-21T04:42:24.009Z,100511.16
2023-05-21T04:45:13.329Z,100500.06
2023-05-21T04:48:03.726Z,100504.88
2023-05-21T04:50:53.525Z,100505.81
2023-05-21T04:53:42.654Z,100506.84
2023-05-21T04:56:33.049Z,100502.19
2023-05-21T04:59:21.793Z,100502.81
2023-05-21T05:02:10.560Z,100507.13
2023-05-21T05:05:00.614Z,100508.50
2023-05-21T05:07:49.313Z,100505.50
2023-05-21T05:10:37.947Z,100505.50
2023-05-21T05:13:27.242Z,100501.00
2023-05-21T05:16:18.424Z,100500.81
2023-05-21T05:19:07.182Z,100498.09
2023-05-21T05:21:57.276Z,100497.72
2023-05-21T05:24:45.992Z,100487.03
2023-05-21T05:27:36.407Z,100488.06
2023-05-21T05:30:27.759Z,100488.69
2023-05-21T05:33:16.617Z,100484.97
2023-05-21T05:36:05.654Z,100477.19
2023-05-21T05:38:55.775Z,100487.66
2023-05-21T05:41:44.389Z,100486.41
2023-05-21T05:44:33.125Z,100472.47
2023-05-21T05:47:21.777Z,100474.13
2023-05-21T05:50:10.968Z,100475.31
2023-05-21T05:52:59.626Z,100477.22
2023-05-21T05:55:49.670Z,100470.03
2023-05-21T05:58:38.494Z,100473.53
2023-05-21T06:01:28.047Z,100474.91
2023-05-21T06:04:16.694Z,100465.72
2023-05-21T06:07:05.611Z,100466.34
2023-05-21T06:09:55.676Z,100461.00
2023-05-21T06:12:45.825Z,100466.13
2023-05-21T06:15:35.692Z,100469.44
2023-05-21T06:18:26.829Z,100466.19
2023-05-21T06:21:15.492Z,100465.41
2023-05-21T06:24:05.243Z,100462.72
2023-05-21T06:26:53.891Z,100464.56
2023-05-21T06:29:43.975Z,100459.66
2023-05-21T06:32:32.848Z,100460.47
2023-05-21T06:35:21.910Z,100463.53
2023-05-21T06:38:10.581Z,100465.41
2023-05-21T06:40:59.469Z,100459.22
2023-05-21T06:43:48.101Z,100467.63
2023-05-21T06:46:38.186Z,100469.91
2023-05-21T06:49:26.809Z,100469.13
2023-05-21T06:52:15.452Z,100469.94
2023-05-21T06:55:06.338Z,100464.16
2023-05-21T06:57:55.030Z,100469.13
2023-05-21T07:00:43.717Z,100463.78
2023-05-21T07:03:33.883Z,100462.53
2023-05-21T07:06:22.519Z,100473.22
2023-05-21T07:09:11.202Z,100461.28
2023-05-21T07:12:00.034Z,100466.03
2023-05-21T07:14:49.029Z,100466.88
2023-05-21T07:17:37.926Z,100473.25
2023-05-21T07:20:27.931Z,100474.91
2023-05-21T07:23:16.654Z,100467.53
2023-05-21T07:26:05.686Z,100459.91
2023-05-21T07:28:54.445Z,100464.66
2023-05-21T07:31:43.233Z,100455.16
2023-05-21T07:34:33.035Z,100457.47
2023-05-21T07:37:23.300Z,100458.09
2023-05-21T07:40:13.069Z,100456.47
2023-05-21T07:43:04.679Z,100461.59
2023-05-21T07:45:53.545Z,100465.19
2023-05-21T07:48:44.155Z,100462.78
2023-05-21T07:51:33.092Z,100459.91
2023-05-21T07:54:23.153Z,100456.63
2023-05-21T07:57:11.820Z,100449.47
2023-05-21T08:00:00.526Z,100460.00
2023-05-21T08:02:50.522Z,100454.19
2023-05-21T08:05:39.378Z,100453.34
2023-05-21T08:08:28.130Z,100452.91
2023-05-21T08:11:18.244Z,100455.00
2023-05-21T08:14:11.608Z,100461.16
2023-05-21T08:17:00.272Z,100455.41
2023-05-21T08:19:48.986Z,100457.03
2023-05-21T08:22:37.697Z,100464.88
2023-05-21T08:25:29.341Z,100460.97
2023-05-21T08:28:19.425Z,100462.41
2023-05-21T08:31:10.206Z,100468.03
2023-05-21T08:33:58.873Z,100460.38
2023-05-21T08:36:49.952Z,100468.63
2023-05-21T08:39:38.636Z,100463.28
2023-05-21T08:42:37.519Z,100465.13
2023-05-21T08:45:29.064Z,100453.78
2023-05-21T08:48:18.487Z,100464.69
2023-05-21T08:51:09.481Z,100463.66
2023-05-21T08:53:59.303Z,100460.78
2023-05-21T08:56:49.573Z,100463.06
2023-05-21T08:59:43.253Z,100466.09
2023-05-21T09:02:38.938Z,100459.53
2023-05-21T09:05:28.658Z,100461.00
2023-05-21T09:08:21.849Z,100457.50
2023-05-21T09:11:10.710Z,100454.16
2023-05-21T09:14:00.598Z,100461.63
2023-05-21T09:16:49.345Z,100457.91
2023-05-21T09:19:39.972Z,100468.19
2023-05-21T09:22:29.483Z,100455.81
2023-05-21T09:25:22.355Z,100446.78
2023-05-21T09:28:14.449Z,100448.00
2023-05-21T09:31:05.303Z,100439.75
2023-05-21T09:33:55.639Z,100453.13
2023-05-21T09:36:47.231Z,100445.72
2023-05-21T09:39:36.070Z,100448.78
2023-05-21T09:42:24.760Z,100451.06
2023-05-21T09:45:14.970Z,100443.00
2023-05-21T09:48:03.872Z,100444.19
2023-05-21T09:50:52.952Z,100442.56
2023-05-21T09:53:50.045Z,100440.91
2023-05-21T09:56:38.738Z,100443.16
2023-05-21T09:59:37.855Z,100444.38
2023-05-21T10:02:27.723Z,100435.41
2023-05-21T10:05:17.572Z,100442.81
2023-05-21T10:08:06.738Z,100431.47
2023-05-21T10:10:58.341Z,100438.53
2023-05-21T10:13:50.640Z,100435.63
2023-05-21T10:16:39.329Z,100436.47
2023-05-21T10:19:32.060Z,100435.41
2023-05-21T10:22:21.156Z,100433.47
2023-05-21T10:25:10.503Z,100435.56
2023-05-21T10:28:00.638Z,100444.44
2023-05-21T10:30:49.752Z,100428.94
2023-05-21T10:33:40.040Z,100434.75
2023-05-21T10:36:32.732Z,100442.72
2023-05-21T10:39:24.029Z,100437.25
2023-05-21T10:42:28.290Z,100422.75
2023-05-21T10:45:28.721Z,100426.03
2023-05-21T10:48:40.558Z,100423.91
2023-05-21T10:51:30.736Z,100422.28
2023-05-21T10:54:54.387Z,100424.41
2023-05-21T10:58:18.182Z,100431.28
2023-05-21T11:01:09.383Z,100428.19
2023-05-21T11:03:58.107Z,100420.56
2023-05-21T11:06:49.608Z,100422.22
2023-05-21T11:09:39.771Z,100413.56
2023-05-21T11:12:29.874Z,100408.75
2023-05-21T11:15:18.485Z,100401.38
2023-05-21T11:18:09.479Z,100398.88
2023-05-21T11:21:06.009Z,100401.31
2023-05-21T11:23:55.341Z,100401.81
2023-05-21T11:27:06.715Z,100407.50
2023-05-21T11:29:57.452Z,100393.44
2023-05-21T11:33:15.911Z,100392.25
2023-05-21T11:36:14.373Z,100393.50
2023-05-21T11:39:17.912Z,100397.44
2023-05-21T11:42:06.943Z,100394.22
2023-05-21T11:44:57.999Z,100387.56
2023-05-21T11:47:46.874Z,100384.34
2023-05-21T11:50:37.620Z,100385.94
2023-05-21T11:53:27.936Z,100384.34
2023-05-21T11:56:18.395Z,100391.75
2023-05-21T11:59:07.101Z,100398.16
2023-05-21T12:01:56.961Z,100393.88
2023-05-21T12:04:48.582Z,100393.63
2023-05-21T12:07:38.524Z,100388.44
2023-05-21T12:10:28.751Z,100395.47
2023-05-21T12:13:17.371Z,100388.84
2023-05-21T12:16:07.368Z,100393.78
2023-05-21T12:18:56.502Z,100395.38
2023-05-21T12:21:45.661Z,100390.47
2023-05-21T12:24:35.534Z,100388.53
2023-05-21T12:27:28.243Z,100389.22
2023-05-21T12:30:20.149Z,100390.09
2023-05-21T12:33:08.819Z,100395.88
2023-05-21T12:35:57.676Z,100388.03
2023-05-21T12:38:47.684Z,100389.56
2023-05-21T12:41:36.420Z,100395.94
2023-05-21T12:44:31.717Z,100391.38
2023-05-21T12:47:21.026Z,100396.00
2023-05-21T12:50:12.351Z,100392.81
2023-05-21T12:53:00.966Z,100381.53
2023-05-21T12:55:49.766Z,100379.09
2023-05-21T12:58:40.262Z,100363.59
2023-05-21T13:01:30.361Z,100367.41
2023-05-21T13:04:21.602Z,100353.88
2023-05-21T13:07:10.341Z,100363.78
2023-05-21T13:10:00.053Z,100363.81
2023-05-21T13:12:48.665Z,100366.63
2023-05-21T13:15:37.520Z,100366.72
2023-05-21T13:18:27.876Z,100356.25
2023-05-21T13:21:16.747Z,100355.13
2023-05-21T13:24:05.746Z,100352.63
2023-05-21T13:26:54.407Z,100349.16
2023-05-21T13:29:43.156Z,100345.63
2023-05-21T13:32:32.078Z,100346.63
2023-05-21T13:35:22.313Z,100340.25
2023-05-21T13:38:10.975Z,100339.16
2023-05-21T13:40:59.660Z,100347.41
2023-05-21T13:43:48.408Z,100348.25
2023-05-21T13:46:39.463Z,100342.06
2023-05-21T13:49:28.310Z,100334.31
2023-05-21T13:52:18.449Z,100335.66
2023-05-21T13:55:08.152Z,100331.56
2023-05-21T13:57:56.885Z,100332.44
2023-05-21T14:00:45.729Z,100334.22
2023-05-21T14:03:34.994Z,100336.88
2023-05-21T14:06:23.685Z,100334.00
2023-05-21T14:09:14.052Z,100333.66
2023-05-21T14:12:06.243Z,100334.81
2023-05-21T14:14:55.533Z,100331.09
2023-05-21T14:17:44.260Z,100331.88
2023-05-21T14:20:33.100Z,100323.66
2023-05-21T14:23:21.939Z,100330.28
2023-05-21T14:26:12.107Z,100329.78
2023-05-21T14:29:01.442Z,100330.63
2023-05-21T14:31:50.267Z,100330.19
2023-05-21T14:34:40.605Z,100329.69
2023-05-21T14:37:29.257Z,100329.34
2023-05-21T14:40:18.366Z,100322.09
2023-05-21T14:43:08.521Z,100324.63
2023-05-21T14:45:57.465Z,100330.91
2023-05-21T14:48:46.685Z,100328.31
2023-05-21T14:51:35.413Z,100332.66
2023-05-21T14:54:24.043Z,100327.34
2023-05-21T14:57:12.727Z,100333.94
2023-05-21T15:00:02.996Z,100331.53
2023-05-21T15:02:52.253Z,100325.47
2023-05-21T15:05:42.202Z,100330.28
2023-05-21T15:08:31.002Z,100332.34
2023-05-21T15:11:19.690Z,100326.59
2023-05-21T15:14:08.414Z,100322.44
2023-05-21T15:16:58.442Z,100319.16
2023-05-21T15:19:48.764Z,100326.34
2023-05-21T15:22:37.810Z,100318.72
2023-05-21T15:25:26.531Z,100318.50
2023-05-21T15:28:15.422Z,100314.91
2023-05-21T15:31:04.479Z,100319.31
2023-05-21T15:33:54.681Z,100312.44
2023-05-21T15:36:43.358Z,100317.41
2023-05-21T15:39:32.084Z,100318.47
2023-05-21T15:42:20.915Z,100306.25
2023-05-21T15:45:12.039Z,100305.00
2023-05-21T15:48:00.756Z,100302.97
2023-05-21T15:50:51.241Z,100300.19
2023-05-21T15:53:40.113Z,100300.72
2023-05-21T15:56:29.192Z,100305.16
2023-05-21T15:59:20.699Z,100296.09
2023-05-21T16:02:10.127Z,100299.00
2023-05-21T16:04:58.887Z,100298.03
2023-05-21T16:07:49.203Z,100295.25
2023-05-21T16:10:39.985Z,100295.28
2023-05-21T16:13:28.802Z,100295.28
2023-05-21T16:16:17.613Z,100288.88
2023-05-21T16:19:06.842Z,100288.72
2023-05-21T16:21:55.497Z,100287.69
2023-05-21T16:24:45.680Z,100283.66
2023-05-21T16:27:35.549Z,100272.91
2023-05-21T16:30:24.224Z,100277.09
2023-05-21T16:33:13.040Z,100286.88
2023-05-21T16:36:01.722Z,100284.88
2023-05-21T16:38:50.521Z,100289.69
2023-05-21T16:41:40.577Z,100294.00
2023-05-21T16:44:29.350Z,100292.88
2023-05-21T16:47:18.291Z,100285.44
2023-05-21T16:50:08.581Z,100292.31
2023-05-21T16:52:59.205Z,100290.06
2023-05-21T16:55:47.929Z,100283.78
2023-05-21T16:58:38.100Z,100291.09
2023-05-21T17:01:27.038Z,100285.94
2023-05-21T17:04:15.689Z,100291.53
2023-05-21T17:07:04.509Z,100298.16
2023-05-21T17:09:53.438Z,100290.16
2023-05-21T17:12:42.102Z,100290.91
2023-05-21T17:15:32.323Z,100286.84
2023-05-21T17:18:21.175Z,100289.72
2023-05-21T17:21:11.095Z,100291.91
2023-05-21T17:23:59.765Z,100286.19
2023-05-21T17:26:48.438Z,100293.84
2023-05-21T17:29:37.117Z,100297.25
2023-05-21T17:32:27.198Z,100290.97
2023-05-21T17:35:15.994Z,100293.72
2023-05-21T17:38:04.747Z,100299.16
2023-05-21T17:40:54.423Z,100294.63
2023-05-21T17:43:43.090Z,100297.50
2023-05-21T17:46:33.876Z,100297.63
2023-05-21T17:49:23.914Z,100295.13
2023-05-21T17:52:12.817Z,100300.63
2023-05-21T17:55:02.421Z,100292.63
2023-05-21T17:57:51.045Z,100300.91
2023-05-21T18:00:39.850Z,100302.53
2023-05-21T18:03:28.574Z,100307.91
2023-05-21T18:06:18.822Z,100320.69
2023-05-21T18:09:08.242Z,100306.84
2023-05-21T18:11:58.365Z,100316.69
2023-05-21T18:14:48.077Z,100319.16
2023-05-21T18:17:36.814Z,100315.88
2023-05-21T18:20:25.950Z,100317.06
2023-05-21T18:23:16.228Z,100329.84
2023-05-21T18:26:05.835Z,100326.94
2023-05-21T18:28:54.588Z,100330.22
2023-05-21T18:31:45.599Z,100326.56
2023-05-21T18:34:34.334Z,100324.91
2023-05-21T18:37:22.938Z,100324.53
2023-05-21T18:40:14.770Z,100323.09
2023-05-21T18:43:05.986Z,100334.47
2023-05-21T18:45:54.682Z,100332.09
2023-05-21T18:48:43.366Z,100332.06
2023-05-21T18:51:32.541Z,100325.06
2023-05-21T18:54:21.228Z,100335.38
2023-05-21T18:57:11.996Z,100333.28
2023-05-21T19:00:00.959Z,100330.41
2023-05-21T19:02:49.756Z,100334.16
2023-05-21T19:05:38.553Z,100331.50
2023-05-21T19:08:27.207Z,100333.50
2023-05-21T19:11:17.521Z,100337.84
2023-05-21T19:14:07.799Z,100327.53
2023-05-21T19:16:56.458Z,100328.00
2023-05-21T19:19:45.141Z,100335.59
2023-05-21T19:22:34.036Z,100328.00
2023-05-21T19:28:41.560Z,100342.88
2023-05-21T19:31:31.584Z,100344.91
2023-05-21T19:34:20.807Z,100340.00
2023-05-21T19:37:09.612Z,100345.34
2023-05-21T19:39:58.458Z,100350.28
2023-05-21T19:42:47.514Z,100351.53
2023-05-21T19:45:36.301Z,100353.81
2023-05-21T19:48:26.463Z,100360.66
2023-05-21T19:51:15.791Z,100360.22
2023-05-21T19:54:04.449Z,100354.06
2023-05-21T19:56:53.239Z,100355.72
2023-05-21T19:59:41.940Z,100359.63
2023-05-21T20:02:30.734Z,100352.41
2023-05-21T20:05:21.082Z,100361.03
2023-05-21T20:08:09.687Z,100366.41
2023-05-21T20:10:58.294Z,100357.13
2023-05-21T20:13:50.080Z,100363.53
2023-05-21T20:16:38.868Z,100356.13
2023-05-21T20:19:28.089Z,100348.09
2023-05-21T20:22:18.385Z,100347.91
2023-05-21T20:25:08.783Z,100348.72
2023-05-21T20:27:58.072Z,100352.44
2023-05-21T20:30:57.316Z,100350.78
2023-05-21T20:33:46.374Z,100346.47
2023-05-21T20:36:35.321Z,100354.94
2023-05-21T20:39:27.257Z,100349.56
2023-05-21T20:42:16.180Z,100354.50
2023-05-21T20:45:05.136Z,100354.31
2023-05-21T20:47:53.917Z,100353.28
2023-05-21T20:50:44.134Z,100359.69
2023-05-21T20:53:33.775Z,100357.41
2023-05-21T20:56:40.043Z,100361.09
2023-05-21T20:59:30.702Z,100352.06
2023-05-21T21:02:20.167Z,100357.44
2023-05-21T21:05:10.578Z,100351.91
2023-05-21T21:08:02.618Z,100354.16
2023-05-21T21:10:51.554Z,100363.63
2023-05-21T21:13:41.808Z,100361.34
2023-05-21T21:16:30.665Z,100362.75
2023-05-21T21:19:19.804Z,100364.00
2023-05-21T21:22:08.473Z,100361.34
2023-05-21T21:24:57.108Z,100351.91
2023-05-21T21:27:45.805Z,100362.59
2023-05-21T21:30:35.828Z,100354.16
2023-05-21T21:33:26.663Z,100366.09
2023-05-21T21:36:15.470Z,100360.75
2023-05-21T21:39:04.319Z,100361.16
2023-05-21T21:41:53.069Z,100365.69
2023-05-21T21:44:42.239Z,100367.97
2023-05-21T21:47:33.631Z,100369.03
2023-05-21T21:50:22.334Z,100360.59
2023-05-21T21:53:12.615Z,100364.47
2023-05-21T21:56:01.404Z,100366.94
2023-05-21T21:58:50.048Z,100362.84
2023-05-21T22:01:39.437Z,100360.75
2023-05-21T22:04:29.745Z,100366.53
2023-05-21T22:07:18.655Z,100363.44
2023-05-21T22:10:08.190Z,100355.84
2023-05-21T22:12:57.038Z,100360.34
2023-05-21T22:15:45.828Z,100367.56
2023-05-21T22:18:40.401Z,100360.78
2023-05-21T22:21:33.927Z,100363.66
2023-05-21T22:24:31.956Z,100368.56
2023-05-21T22:27:22.085Z,100370.22
2023-05-21T22:30:11.556Z,100363.44
2023-05-21T22:33:00.551Z,100361.16
2023-05-21T22:35:49.174Z,100359.94
2023-05-21T22:38:39.281Z,100361.59
2023-05-21T22:41:28.024Z,100358.06
2023-05-21T22:44:16.729Z,100351.69
2023-05-21T22:47:06.482Z,100346.16
2023-05-21T22:49:58.180Z,100350.47
2023-05-21T22:52:47.348Z,100354.19
2023-05-21T22:55:37.397Z,100355.22
2023-05-21T22:58:26.024Z,100359.09
2023-05-21T23:01:14.888Z,100359.91
2023-05-21T23:04:03.725Z,100355.41
2023-05-21T23:06:52.807Z,100356.44
2023-05-21T23:09:41.677Z,100355.41
2023-05-21T23:12:31.730Z,100361.19
2023-05-21T23:15:21.694Z,100356.22
2023-05-21T23:18:11.404Z,100354.56
2023-05-21T23:21:00.270Z,100354.38
2023-05-21T23:23:49.009Z,100353.34
2023-05-21T23:26:37.674Z,100347.59
2023-05-21T23:29:27.679Z,100353.34
2023-05-21T23:32:16.361Z,100345.94
2023-05-21T23:35:05.304Z,100348.00
2023-05-21T23:37:54.005Z,100349.22
2023-05-21T23:40:43.696Z,100344.28
2023-05-21T23:43:32.474Z,100348.41
2023-05-21T23:46:22.919Z,100349.84
2023-05-21T23:49:11.983Z,100351.91
2023-05-21T23:52:01.506Z,100354.16
2023-05-21T23:54:50.111Z,100358.69
2023-05-21T23:57:39.197Z,100350.44
